Terminal Aerodrome Forecast
Issued by NWS

Home | Current Version | Previous Version | Text Only | Print | Product List | Glossary On
Versions: 1 2 3 4 5 6 7 8 9 10 11 12 13 14 15 16 17 18 19 20 21 22 23 24 25 26 27 28
000
FTUS43 KDTX 271120
TAFPTK
TAF
KPTK 271120Z 2712/2812 23008KT P6SM SCT070
     FM271600 24015G25KT P6SM BKN060 BKN120
     FM280000 20005KT P6SM BKN050 OVC090=

USA.gov is the U.S. government's official web portal to all federal, state and local government web resources and services.